Home   Weather   USA   Mount Vernon   Past weeks
Flag for USA

Past Weather in Mount Vernon, Ohio, USA — Yesterday and Last 2 Weeks

Currently: 81 °F. Scattered clouds. (Weather station: Knox County Airport, USA). See more current weather

Past Weather in Mount Vernon — Graph

°F

Mount Vernon Temperature Yesterday

Maximum temperature yesterday: 77 °F (at 4:15 pm)
Minimum temperature yesterday: 48 °F (at 1:55 am)
Average temperature yesterday: 62 °F

High & Low Weather Summary for the Past Weeks

 TemperatureHumidityPressure
High86 °F (Jun 12, 5:15 pm)100% (Jun 10, 12:15 am)30.25 "Hg (Jun 10, 12:15 am)
Low48 °F (Jun 17, 4:35 am)31% (Jun 16, 7:35 pm)29.65 "Hg (Jun 21, 10:15 am)
Average69 °F71%29.96 "Hg
* Reported Jun 9 1:15 pm — Jun 24 1:55 pm, Mount Vernon. Weather by CustomWeather, © 2021

Note: Actual official high and low records may vary slightly from our data, if they occured in-between our weather recording intervals... More about our weather records

Mount Vernon Weather History for the Previous 24 Hours

Scroll right to see more
 ConditionsComfort  
Time TempWeatherWind HumidityBarometerVisibility
1:55 pm
Thu, Jun 24
81 °FSunny.12 mph48%30.17 "Hg10 mi
1:35 pm81 °FSunny.12 mph51%30.17 "Hg10 mi
1:15 pm79 °FSunny.13 mph51%30.18 "Hg10 mi
12:55 pm79 °FSunny.14 mph51%30.19 "Hg10 mi
12:35 pm79 °FSunny.12 mph51%30.20 "Hg10 mi
12:15 pm79 °FSunny.10 mph54%30.21 "Hg10 mi
11:55 am77 °FSunny.10 mph54%30.21 "Hg10 mi
11:35 am75 °FSunny.8 mph57%30.21 "Hg10 mi
11:15 am73 °FSunny.6 mph61%30.22 "Hg10 mi
10:55 am73 °FSunny.7 mph61%30.22 "Hg10 mi
10:35 am73 °FSunny.6 mph57%30.22 "Hg10 mi
10:15 am72 °FSunny.7 mph61%30.22 "Hg10 mi
9:55 am72 °FSunny.7 mph61%30.23 "Hg10 mi
9:35 am70 °FSunny.3 mph64%30.23 "Hg10 mi
9:15 am68 °FSunny.5 mph69%30.22 "Hg10 mi
8:55 am66 °FSunny.7 mph68%30.22 "Hg10 mi
8:35 am64 °FSunny.5 mph73%30.22 "Hg10 mi
8:15 am63 °FSunny.7 mph73%30.21 "Hg10 mi
7:55 am59 °FSunny.3 mph77%30.22 "Hg10 mi
7:35 am59 °FSunny.3 mph77%30.22 "Hg10 mi
7:15 am57 °FSunny.No wind82%30.21 "Hg10 mi
6:55 am55 °FSunny.3 mph82%30.20 "Hg10 mi
6:35 am55 °FSunny.3 mph82%30.21 "Hg10 mi
6:15 am55 °FSunny.3 mph82%30.21 "Hg10 mi
5:55 am55 °FClear.No wind82%30.22 "Hg10 mi
5:35 am55 °FClear.No wind82%30.21 "Hg10 mi
5:15 am57 °FClear.No wind77%30.21 "Hg10 mi
4:55 am55 °FClear.No wind82%30.22 "Hg10 mi
4:35 am55 °FClear.No wind82%30.22 "Hg10 mi
4:15 am57 °FClear.No wind77%30.22 "Hg10 mi
3:55 am57 °FClear.3 mph77%30.22 "Hg10 mi
3:35 am57 °FClear.No wind77%30.22 "Hg10 mi
3:15 am59 °FClear.No wind72%30.22 "Hg10 mi
2:55 am59 °FClear.No wind72%30.22 "Hg10 mi
2:15 am59 °FClear.3 mph77%30.22 "Hg10 mi
1:55 am59 °FClear.No wind77%30.22 "Hg10 mi
1:35 am59 °FClear.No wind77%30.22 "Hg10 mi
1:15 am61 °FClear.No wind72%30.22 "Hg10 mi
12:55 am61 °FClear.No wind72%30.22 "Hg10 mi
12:35 am61 °FClear.No wind72%30.23 "Hg10 mi
12:15 am63 °FClear.No wind68%30.23 "Hg10 mi
11:55 pm
Wed, Jun 23
63 °FClear.No wind68%30.22 "Hg10 mi
11:35 pm63 °FClear.No wind68%30.22 "Hg10 mi
11:15 pm61 °FClear.6 mph72%30.21 "Hg10 mi
10:55 pm64 °FClear.3 mph68%30.22 "Hg10 mi
10:35 pm64 °FClear.3 mph64%30.22 "Hg10 mi
10:15 pm64 °FClear.5 mph64%30.21 "Hg10 mi
9:55 pm64 °FClear.5 mph64%30.22 "Hg10 mi
9:35 pm66 °FClear.5 mph60%30.21 "Hg10 mi
9:15 pm66 °FClear.5 mph60%30.21 "Hg10 mi
8:55 pm68 °FSunny.3 mph56%30.21 "Hg10 mi
7:55 pm70 °FSunny.6 mph53%30.21 "Hg10 mi
7:35 pm70 °FSunny.3 mph53%30.21 "Hg10 mi
7:15 pm70 °FSunny.7 mph53%30.20 "Hg10 mi
6:55 pm70 °FSunny.6 mph53%30.21 "Hg10 mi
6:35 pm72 °FSunny.6 mph47%30.21 "Hg10 mi
6:15 pm72 °FScattered clouds.6 mph44%30.21 "Hg10 mi
5:55 pm73 °FScattered clouds.8 mph44%30.21 "Hg10 mi
5:35 pm73 °FSunny.7 mph41%30.21 "Hg10 mi
4:55 pm73 °FSunny.8 mph41%30.21 "Hg10 mi
4:35 pm73 °FSunny.7 mph44%30.21 "Hg10 mi
4:15 pm77 °FSunny.3 mph36%30.21 "Hg10 mi
3:55 pm75 °FSunny.No wind39%30.21 "Hg10 mi
3:35 pm75 °FSunny.7 mph39%30.22 "Hg10 mi
3:15 pm75 °FSunny.3 mph39%30.22 "Hg10 mi
Weather by CustomWeather, © 2021

See weather overview